createdAt,value
2022-12-10T00:00:23.137Z,84.01
2022-12-10T00:05:25.739Z,84.21
2022-12-10T00:10:28.367Z,84.53
2022-12-10T00:15:30.803Z,84.57
2022-12-10T00:20:33.385Z,84.73
2022-12-10T00:25:35.946Z,84.43
2022-12-10T00:30:39.000Z,84.89
2022-12-10T00:35:41.639Z,84.51
2022-12-10T00:40:45.320Z,84.04
2022-12-10T00:45:47.913Z,83.85
2022-12-10T00:51:00.902Z,84.07
2022-12-10T00:56:04.710Z,84.20
2022-12-10T01:01:29.543Z,84.24
2022-12-10T01:06:38.243Z,84.17
2022-12-10T01:11:42.650Z,83.87
2022-12-10T01:16:46.338Z,83.47
2022-12-10T01:21:54.031Z,83.61
2022-12-10T01:26:57.824Z,83.87
2022-12-10T01:32:00.882Z,84.26
2022-12-10T01:37:03.558Z,83.94
2022-12-10T01:42:12.764Z,84.25
2022-12-10T01:47:15.519Z,84.77
2022-12-10T01:52:20.613Z,85.46
2022-12-10T01:57:27.973Z,84.86
2022-12-10T02:02:35.946Z,84.78
2022-12-10T02:07:50.892Z,85.34
2022-12-10T02:13:11.919Z,86.08
2022-12-10T02:18:22.693Z,85.50
2022-12-10T02:23:35.483Z,85.57
2022-12-10T02:28:52.708Z,85.54
2022-12-10T02:34:00.120Z,84.12
2022-12-10T02:39:05.700Z,84.31
2022-12-10T02:44:12.786Z,84.95
2022-12-10T02:49:16.982Z,85.54
2022-12-10T02:54:42.786Z,85.64
2022-12-10T03:00:08.536Z,84.86
2022-12-10T03:05:45.397Z,85.56
2022-12-10T03:10:56.863Z,85.32
2022-12-10T03:16:00.822Z,84.82
2022-12-10T03:21:06.431Z,84.58
2022-12-10T03:26:09.514Z,85.14
2022-12-10T03:31:15.279Z,85.39
2022-12-10T03:36:20.673Z,84.80
2022-12-10T03:41:23.370Z,85.53
2022-12-10T03:46:28.325Z,84.89
2022-12-10T03:51:31.016Z,85.04
2022-12-10T03:56:33.535Z,85.17
2022-12-10T04:01:36.174Z,84.84
2022-12-10T04:06:40.510Z,84.95
2022-12-10T04:11:44.051Z,85.13
2022-12-10T04:16:46.653Z,84.62
2022-12-10T04:22:08.695Z,84.96
2022-12-10T04:27:17.617Z,84.56
2022-12-10T04:32:20.885Z,85.21
2022-12-10T04:37:24.689Z,84.91
2022-12-10T04:42:27.226Z,84.86
2022-12-10T04:47:29.779Z,84.80
2022-12-10T04:52:32.336Z,84.36
2022-12-10T04:57:34.912Z,84.48
2022-12-10T05:02:38.899Z,85.17
2022-12-10T05:07:41.430Z,84.69
2022-12-10T05:12:43.948Z,84.44
2022-12-10T05:17:46.459Z,84.18
2022-12-10T05:23:07.682Z,83.83
2022-12-10T05:28:10.958Z,83.66
2022-12-10T05:33:13.743Z,83.98
2022-12-10T05:38:16.585Z,84.33
2022-12-10T05:43:19.403Z,84.23
2022-12-10T05:48:21.887Z,84.82
2022-12-10T05:53:25.194Z,84.50
2022-12-10T05:58:30.034Z,84.50
2022-12-10T06:03:32.623Z,84.44
2022-12-10T06:08:36.697Z,84.55
2022-12-10T06:13:39.221Z,84.05
2022-12-10T06:18:42.249Z,84.35
2022-12-10T06:23:45.986Z,84.31
2022-12-10T06:28:49.084Z,84.15
2022-12-10T06:33:53.606Z,84.01
2022-12-10T06:38:56.846Z,83.64
2022-12-10T06:43:59.693Z,83.82
2022-12-10T06:49:02.217Z,83.72
2022-12-10T06:54:05.926Z,83.60
2022-12-10T06:59:08.540Z,83.46
2022-12-10T07:04:11.337Z,83.43
2022-12-10T07:09:13.931Z,83.29
2022-12-10T07:14:17.873Z,83.30
2022-12-10T07:19:20.499Z,83.14
2022-12-10T07:24:23.062Z,83.05
2022-12-10T07:29:27.588Z,82.80
2022-12-10T07:34:30.226Z,82.22
2022-12-10T07:39:33.646Z,81.91
2022-12-10T07:44:36.194Z,81.57
2022-12-10T07:49:38.795Z,84.28
2022-12-10T07:54:41.345Z,85.32
2022-12-10T07:59:43.942Z,85.74
2022-12-10T08:04:46.511Z,85.36
2022-12-10T08:09:49.136Z,86.05
2022-12-10T08:14:51.691Z,85.97
2022-12-10T08:19:55.897Z,86.46
2022-12-10T08:24:58.569Z,85.09
2022-12-10T08:30:01.053Z,83.76
2022-12-10T08:35:03.949Z,83.08
2022-12-10T08:40:08.313Z,84.07
2022-12-10T08:45:11.107Z,82.95
2022-12-10T08:50:13.578Z,83.99
2022-12-10T08:55:16.810Z,84.65
2022-12-10T09:00:19.920Z,84.06
2022-12-10T09:05:22.458Z,85.40
2022-12-10T09:10:25.182Z,85.97
2022-12-10T09:15:27.646Z,87.89
2022-12-10T09:20:30.196Z,86.28
2022-12-10T09:25:32.701Z,85.77
2022-12-10T09:30:35.381Z,85.70
2022-12-10T09:35:41.614Z,84.59
2022-12-10T09:41:15.222Z,84.87
2022-12-10T09:46:35.840Z,86.63
2022-12-10T09:51:39.141Z,85.82
2022-12-10T09:56:44.697Z,85.36
2022-12-10T10:01:52.209Z,86.14
2022-12-10T10:06:54.927Z,85.80
2022-12-10T10:11:57.598Z,84.82
2022-12-10T10:17:08.680Z,86.32
2022-12-10T10:22:11.904Z,86.00
2022-12-10T10:27:27.543Z,85.56
2022-12-10T10:32:49.846Z,84.66
2022-12-10T10:37:58.496Z,84.90
2022-12-10T10:43:02.471Z,84.58
2022-12-10T10:48:13.452Z,84.96
2022-12-10T10:53:30.497Z,84.43
2022-12-10T10:58:35.089Z,84.53
2022-12-10T11:03:38.203Z,85.61
2022-12-10T11:08:43.258Z,86.61
2022-12-10T11:13:46.083Z,85.83
2022-12-10T11:19:02.994Z,84.93
2022-12-10T11:24:12.843Z,84.82
2022-12-10T11:29:41.027Z,84.60
2022-12-10T11:34:58.752Z,85.71
2022-12-10T11:40:12.197Z,86.16
2022-12-10T11:45:23.921Z,86.53
2022-12-10T11:50:30.124Z,87.12
2022-12-10T11:55:56.633Z,88.17
2022-12-10T12:01:37.074Z,88.02
2022-12-10T12:07:30.756Z,87.58
2022-12-10T12:12:35.938Z,86.98
2022-12-10T12:17:44.535Z,86.94
2022-12-10T12:22:55.176Z,87.67
2022-12-10T12:28:37.553Z,88.81
2022-12-10T12:34:18.621Z,89.51
2022-12-10T12:39:44.739Z,89.54
2022-12-10T12:45:02.502Z,89.64
2022-12-10T12:50:35.258Z,88.91
2022-12-10T12:55:55.807Z,89.14
2022-12-10T13:01:07.643Z,89.00
2022-12-10T13:06:24.895Z,88.14
2022-12-10T13:11:32.035Z,87.75
2022-12-10T13:17:02.193Z,88.81
2022-12-10T13:22:11.307Z,89.00
2022-12-10T13:27:18.230Z,90.76
2022-12-10T13:32:30.997Z,92.67
2022-12-10T13:37:33.671Z,92.47
2022-12-10T13:42:56.916Z,92.69
2022-12-10T13:48:20.984Z,91.75
2022-12-10T13:53:38.119Z,92.42
2022-12-10T13:58:46.740Z,91.89
2022-12-10T14:03:51.842Z,92.40
2022-12-10T14:09:14.766Z,92.96
2022-12-10T14:14:41.062Z,93.25
2022-12-10T14:19:46.876Z,93.64
2022-12-10T14:24:51.474Z,93.87
2022-12-10T14:30:15.385Z,93.39
2022-12-10T14:35:25.621Z,94.69
2022-12-10T14:40:38.817Z,94.32
2022-12-10T14:45:56.654Z,94.86
2022-12-10T14:51:11.632Z,94.43
2022-12-10T14:56:23.706Z,94.83
2022-12-10T15:01:42.303Z,96.51
2022-12-10T15:06:46.435Z,96.80
2022-12-10T15:12:01.413Z,96.02
2022-12-10T15:17:04.246Z,95.53
2022-12-10T15:22:16.189Z,96.33
2022-12-10T15:27:23.054Z,96.92
2022-12-10T15:32:28.436Z,97.47
2022-12-10T15:37:35.652Z,98.36
2022-12-10T15:42:41.035Z,99.61
2022-12-10T15:47:44.917Z,99.97
2022-12-10T15:52:47.555Z,100.00
2022-12-10T15:57:50.856Z,100.00
2022-12-10T16:03:03.778Z,100.00
2022-12-10T16:08:26.302Z,100.00
2022-12-10T16:13:37.872Z,100.00
2022-12-10T16:18:40.518Z,100.00
2022-12-10T16:23:43.423Z,100.00
2022-12-10T16:28:46.771Z,100.00
2022-12-10T16:33:52.799Z,100.00
2022-12-10T16:38:55.540Z,100.00
2022-12-10T16:43:58.415Z,100.00
2022-12-10T16:49:01.021Z,100.00
2022-12-10T16:54:04.727Z,100.00
2022-12-10T16:59:07.357Z,100.00
2022-12-10T17:04:10.864Z,100.00
2022-12-10T17:09:13.463Z,100.00
2022-12-10T17:14:22.648Z,100.00
2022-12-10T17:19:29.824Z,100.00
2022-12-10T17:24:32.932Z,100.00
2022-12-10T17:29:41.859Z,100.00
2022-12-10T17:34:44.473Z,100.00
2022-12-10T17:39:47.881Z,100.00
2022-12-10T17:44:50.477Z,100.00
2022-12-10T17:49:53.195Z,100.00
2022-12-10T17:54:55.846Z,100.00
2022-12-10T17:59:58.445Z,100.00
2022-12-10T18:05:00.958Z,100.00
2022-12-10T18:10:13.390Z,100.00
2022-12-10T18:15:21.194Z,100.00
2022-12-10T18:20:26.140Z,100.00
2022-12-10T18:25:29.602Z,100.00
2022-12-10T18:30:32.329Z,100.00
2022-12-10T18:35:35.494Z,100.00
2022-12-10T18:40:38.622Z,100.00
2022-12-10T18:45:41.306Z,100.00
2022-12-10T18:50:44.451Z,100.00
2022-12-10T18:55:47.581Z,100.00
2022-12-10T19:00:50.826Z,100.00
2022-12-10T19:05:53.664Z,100.00
2022-12-10T19:10:57.696Z,100.00
2022-12-10T19:16:02.798Z,100.00
2022-12-10T19:21:06.668Z,100.00
2022-12-10T19:26:26.029Z,100.00
2022-12-10T19:31:29.063Z,100.00
2022-12-10T19:36:31.748Z,100.00
2022-12-10T19:41:34.257Z,100.00
2022-12-10T19:46:36.980Z,100.00
2022-12-10T19:51:39.722Z,100.00
2022-12-10T19:56:43.127Z,100.00
2022-12-10T20:01:46.530Z,100.00
2022-12-10T20:06:49.822Z,100.00
2022-12-10T20:11:52.991Z,100.00
2022-12-10T20:16:56.431Z,100.00
2022-12-10T20:21:59.022Z,100.00
2022-12-10T20:27:01.676Z,100.00
2022-12-10T20:32:04.575Z,100.00
2022-12-10T20:37:07.569Z,100.00
2022-12-10T20:42:10.104Z,100.00
2022-12-10T20:47:12.861Z,100.00
2022-12-10T20:52:15.416Z,100.00
2022-12-10T20:57:18.006Z,100.00
2022-12-10T21:02:20.637Z,100.00
2022-12-10T21:07:23.805Z,100.00
2022-12-10T21:12:26.454Z,100.00
2022-12-10T21:17:29.616Z,100.00
2022-12-10T21:22:33.282Z,100.00
2022-12-10T21:27:36.571Z,100.00
2022-12-10T21:32:39.313Z,100.00
2022-12-10T21:37:41.972Z,100.00
2022-12-10T21:43:03.154Z,100.00
2022-12-10T21:48:05.989Z,100.00
2022-12-10T21:53:09.410Z,100.00
2022-12-10T21:58:12.530Z,100.00
2022-12-10T22:03:15.151Z,100.00
2022-12-10T22:08:17.931Z,100.00
2022-12-10T22:13:20.463Z,100.00
2022-12-10T22:18:23.688Z,100.00
2022-12-10T22:23:27.462Z,100.00
2022-12-10T22:28:30.641Z,100.00
2022-12-10T22:33:33.518Z,100.00
2022-12-10T22:38:37.052Z,100.00
2022-12-10T22:43:54.779Z,100.00
2022-12-10T22:48:57.503Z,100.00
2022-12-10T22:54:01.179Z,100.00
2022-12-10T22:59:05.408Z,100.00
2022-12-10T23:04:09.166Z,100.00
2022-12-10T23:09:11.732Z,100.00
2022-12-10T23:14:14.220Z,100.00
2022-12-10T23:19:16.747Z,100.00
2022-12-10T23:24:19.640Z,100.00
2022-12-10T23:29:22.865Z,100.00
2022-12-10T23:34:25.400Z,100.00
2022-12-10T23:39:27.893Z,100.00
2022-12-10T23:44:30.484Z,100.00
2022-12-10T23:49:33.070Z,100.00
2022-12-10T23:54:35.675Z,100.00
2022-12-10T23:59:38.410Z,100.00
